sensor_id;sensor_type;location;lat;lon;timestamp;pressure;altitude;pressure_sealevel;temperature;humidity
64343;BME280;50675;53.530;-6.312;2022-09-09T00:00:12;99962.84;;;16.82;71.30
64343;BME280;50675;53.530;-6.312;2022-09-09T00:02:39;99968.72;;;16.89;71.67
64343;BME280;50675;53.530;-6.312;2022-09-09T00:05:19;99969.00;;;16.88;71.61
64343;BME280;50675;53.530;-6.312;2022-09-09T00:07:53;99960.13;;;16.82;71.62
64343;BME280;50675;53.530;-6.312;2022-09-09T00:10:30;99973.38;;;16.75;71.72
64343;BME280;50675;53.530;-6.312;2022-09-09T00:13:20;99976.63;;;16.77;71.75
64343;BME280;50675;53.530;-6.312;2022-09-09T00:16:14;99975.28;;;16.75;71.88
64343;BME280;50675;53.530;-6.312;2022-09-09T00:18:58;99969.56;;;16.76;71.86
64343;BME280;50675;53.530;-6.312;2022-09-09T00:21:37;99968.00;;;16.84;72.11
64343;BME280;50675;53.530;-6.312;2022-09-09T00:27:11;99973.19;;;16.72;72.22
64343;BME280;50675;53.530;-6.312;2022-09-09T00:29:47;99974.91;;;16.68;72.15
64343;BME280;50675;53.530;-6.312;2022-09-09T00:32:20;99968.44;;;16.63;72.21
64343;BME280;50675;53.530;-6.312;2022-09-09T00:34:53;99969.75;;;16.66;72.61
64343;BME280;50675;53.530;-6.312;2022-09-09T00:37:22;99971.38;;;16.67;72.46
64343;BME280;50675;53.530;-6.312;2022-09-09T00:39:51;99935.13;;;16.53;72.47
64343;BME280;50675;53.530;-6.312;2022-09-09T00:42:24;99960.34;;;16.58;72.49
64343;BME280;50675;53.530;-6.312;2022-09-09T00:44:59;99958.31;;;16.50;72.89
64343;BME280;50675;53.530;-6.312;2022-09-09T00:47:43;99962.69;;;16.65;72.91
64343;BME280;50675;53.530;-6.312;2022-09-09T00:52:57;99949.34;;;16.63;72.92
64343;BME280;50675;53.530;-6.312;2022-09-09T00:55:38;99945.50;;;16.65;72.90
64343;BME280;50675;53.530;-6.312;2022-09-09T00:58:07;99940.69;;;16.61;72.99
64343;BME280;50675;53.530;-6.312;2022-09-09T01:00:44;99938.13;;;16.51;73.13
64343;BME280;50675;53.530;-6.312;2022-09-09T01:03:21;99955.50;;;16.55;73.15
64343;BME280;50675;53.530;-6.312;2022-09-09T01:06:13;99949.34;;;16.63;73.31
64343;BME280;50675;53.530;-6.312;2022-09-09T01:09:04;99938.66;;;16.53;73.14
64343;BME280;50675;53.530;-6.312;2022-09-09T01:17:11;99935.13;;;16.53;73.46
64343;BME280;50675;53.530;-6.312;2022-09-09T01:19:52;99948.75;;;16.53;73.71
64343;BME280;50675;53.530;-6.312;2022-09-09T01:22:47;99951.75;;;16.51;73.58
64343;BME280;50675;53.530;-6.312;2022-09-09T01:28:26;99935.81;;;16.45;73.67
64343;BME280;50675;53.530;-6.312;2022-09-09T01:30:53;99936.22;;;16.38;73.80
64343;BME280;50675;53.530;-6.312;2022-09-09T01:33:20;99946.22;;;16.29;73.75
64343;BME280;50675;53.530;-6.312;2022-09-09T01:35:56;99949.16;;;16.33;73.77
64343;BME280;50675;53.530;-6.312;2022-09-09T01:38:26;99943.09;;;16.36;73.66
64343;BME280;50675;53.530;-6.312;2022-09-09T01:40:53;99949.16;;;16.19;73.88
64343;BME280;50675;53.530;-6.312;2022-09-09T01:43:23;99939.25;;;16.09;74.16
64343;BME280;50675;53.530;-6.312;2022-09-09T01:45:54;99946.22;;;16.29;74.03
64343;BME280;50675;53.530;-6.312;2022-09-09T01:48:24;99949.53;;;16.26;74.00
64343;BME280;50675;53.530;-6.312;2022-09-09T01:50:54;99945.31;;;16.20;74.07
64343;BME280;50675;53.530;-6.312;2022-09-09T01:53:21;99940.34;;;16.36;74.23
64343;BME280;50675;53.530;-6.312;2022-09-09T01:56:05;99954.22;;;16.39;74.11
64343;BME280;50675;53.530;-6.312;2022-09-09T02:06:55;99930.38;;;16.31;74.34
64343;BME280;50675;53.530;-6.312;2022-09-09T02:09:24;99922.28;;;16.26;74.47
64343;BME280;50675;53.530;-6.312;2022-09-09T02:11:57;99924.13;;;16.17;74.36
64343;BME280;50675;53.530;-6.312;2022-09-09T02:14:30;99933.81;;;16.23;74.38
64343;BME280;50675;53.530;-6.312;2022-09-09T02:17:26;99944.41;;;16.25;74.55
64343;BME280;50675;53.530;-6.312;2022-09-09T02:20:06;99930.88;;;16.19;74.44
64343;BME280;50675;53.530;-6.312;2022-09-09T02:22:35;99929.97;;;16.24;74.57
64343;BME280;50675;53.530;-6.312;2022-09-09T02:25:07;99937.34;;;16.24;74.41
64343;BME280;50675;53.530;-6.312;2022-09-09T02:27:36;99951.53;;;16.07;74.57
64343;BME280;50675;53.530;-6.312;2022-09-09T02:30:03;99946.53;;;16.14;74.63
64343;BME280;50675;53.530;-6.312;2022-09-09T02:32:32;99938.03;;;16.02;74.70
64343;BME280;50675;53.530;-6.312;2022-09-09T02:35:08;99940.88;;;16.10;74.81
64343;BME280;50675;53.530;-6.312;2022-09-09T02:37:37;99931.78;;;16.15;74.81
64343;BME280;50675;53.530;-6.312;2022-09-09T02:40:05;99927.84;;;16.21;74.88
64343;BME280;50675;53.530;-6.312;2022-09-09T02:42:31;99936.91;;;16.30;74.69
64343;BME280;50675;53.530;-6.312;2022-09-09T02:44:57;99929.97;;;16.24;75.00
64343;BME280;50675;53.530;-6.312;2022-09-09T02:47:38;99936.44;;;16.28;74.92
64343;BME280;50675;53.530;-6.312;2022-09-09T02:50:16;99927.25;;;16.24;75.04
64343;BME280;50675;53.530;-6.312;2022-09-09T02:58:01;99922.72;;;16.06;75.16
64343;BME280;50675;53.530;-6.312;2022-09-09T03:00:29;99911.59;;;16.16;75.22
64343;BME280;50675;53.530;-6.312;2022-09-09T03:02:56;99906.66;;;16.18;75.33
64343;BME280;50675;53.530;-6.312;2022-09-09T03:05:22;99924.31;;;16.07;75.22
64343;BME280;50675;53.530;-6.312;2022-09-09T03:07:47;99907.66;;;15.95;75.23
64343;BME280;50675;53.530;-6.312;2022-09-09T03:10:15;99929.38;;;16.00;75.25
64343;BME280;50675;53.530;-6.312;2022-09-09T03:12:40;99912.91;;;15.91;75.51
64343;BME280;50675;53.530;-6.312;2022-09-09T03:15:07;99922.00;;;16.00;75.54
64343;BME280;50675;53.530;-6.312;2022-09-09T03:17:33;99917.75;;;16.08;75.47
64343;BME280;50675;53.530;-6.312;2022-09-09T03:19:59;99919.19;;;16.19;75.52
64343;BME280;50675;53.530;-6.312;2022-09-09T03:22:26;99926.53;;;16.18;75.52
64343;BME280;50675;53.530;-6.312;2022-09-09T03:24:52;99922.09;;;16.09;75.69
64343;BME280;50675;53.530;-6.312;2022-09-09T03:27:18;99926.44;;;15.96;75.77
64343;BME280;50675;53.530;-6.312;2022-09-09T03:29:48;99931.66;;;16.06;75.78
64343;BME280;50675;53.530;-6.312;2022-09-09T03:32:18;99914.13;;;16.12;75.75
64343;BME280;50675;53.530;-6.312;2022-09-09T03:34:44;99915.03;;;16.08;75.79
64343;BME280;50675;53.530;-6.312;2022-09-09T03:37:16;99913.63;;;16.10;75.88
64343;BME280;50675;53.530;-6.312;2022-09-09T03:39:43;99919.84;;;15.97;75.81
64343;BME280;50675;53.530;-6.312;2022-09-09T03:54:34;99923.41;;;16.11;76.06
64343;BME280;50675;53.530;-6.312;2022-09-09T03:57:00;99938.34;;;16.14;76.04
64343;BME280;50675;53.530;-6.312;2022-09-09T03:59:26;99921.91;;;16.19;75.96
64343;BME280;50675;53.530;-6.312;2022-09-09T04:01:53;99942.28;;;16.08;76.23
64343;BME280;50675;53.530;-6.312;2022-09-09T04:04:19;99926.34;;;16.15;76.44
64343;BME280;50675;53.530;-6.312;2022-09-09T04:06:46;99939.44;;;16.13;76.36
64343;BME280;50675;53.530;-6.312;2022-09-09T04:09:14;99931.16;;;15.91;76.29
64343;BME280;50675;53.530;-6.312;2022-09-09T04:11:40;99938.94;;;16.11;76.23
64343;BME280;50675;53.530;-6.312;2022-09-09T04:14:06;99929.47;;;15.95;76.28
64343;BME280;50675;53.530;-6.312;2022-09-09T04:16:33;99926.22;;;15.93;76.29
64343;BME280;50675;53.530;-6.312;2022-09-09T04:18:59;99933.81;;;15.96;76.52
64343;BME280;50675;53.530;-6.312;2022-09-09T04:21:26;99933.72;;;16.01;76.39
64343;BME280;50675;53.530;-6.312;2022-09-09T04:23:52;99940.88;;;16.10;76.22
64343;BME280;50675;53.530;-6.312;2022-09-09T04:26:17;99939.75;;;15.98;76.44
64343;BME280;50675;53.530;-6.312;2022-09-09T04:28:43;99942.66;;;16.01;76.37
64343;BME280;50675;53.530;-6.312;2022-09-09T04:31:15;99933.00;;;16.09;76.54
64343;BME280;50675;53.530;-6.312;2022-09-09T04:33:42;99939.53;;;15.94;76.46
64343;BME280;50675;53.530;-6.312;2022-09-09T04:36:08;99931.66;;;15.93;76.53
64343;BME280;50675;53.530;-6.312;2022-09-09T04:38:33;99942.88;;;15.91;76.48
64343;BME280;50675;53.530;-6.312;2022-09-09T04:40:59;99937.81;;;15.98;76.59
64343;BME280;50675;53.530;-6.312;2022-09-09T04:43:25;99934.81;;;16.00;76.41
64343;BME280;50675;53.530;-6.312;2022-09-09T04:45:53;99940.25;;;16.00;76.55
64343;BME280;50675;53.530;-6.312;2022-09-09T04:48:20;99946.28;;;15.97;76.50
64343;BME280;50675;53.530;-6.312;2022-09-09T04:51:00;99950.06;;;16.01;76.60
64343;BME280;50675;53.530;-6.312;2022-09-09T04:53:27;99942.72;;;15.83;76.78
64343;BME280;50675;53.530;-6.312;2022-09-09T04:56:14;99941.72;;;15.79;76.73
64343;BME280;50675;53.530;-6.312;2022-09-09T04:58:41;99941.44;;;15.80;76.67
64343;BME280;50675;53.530;-6.312;2022-09-09T05:01:14;99939.16;;;16.01;76.71
64343;BME280;50675;53.530;-6.312;2022-09-09T05:03:40;99940.44;;;15.90;77.00
64343;BME280;50675;53.530;-6.312;2022-09-09T05:06:08;99946.00;;;15.98;76.83
64343;BME280;50675;53.530;-6.312;2022-09-09T05:08:36;99958.13;;;16.06;76.94
64343;BME280;50675;53.530;-6.312;2022-09-09T05:11:03;99946.09;;;16.07;76.81
64343;BME280;50675;53.530;-6.312;2022-09-09T05:13:29;99949.06;;;16.10;76.75
64343;BME280;50675;53.530;-6.312;2022-09-09T05:15:57;99945.72;;;16.00;76.76
64343;BME280;50675;53.530;-6.312;2022-09-09T05:18:23;99949.44;;;16.04;76.99
64343;BME280;50675;53.530;-6.312;2022-09-09T05:20:49;99961.44;;;16.03;77.11
64343;BME280;50675;53.530;-6.312;2022-09-09T05:23:16;99962.06;;;16.13;76.77
64343;BME280;50675;53.530;-6.312;2022-09-09T05:25:42;99954.69;;;16.14;76.78
64343;BME280;50675;53.530;-6.312;2022-09-09T05:28:09;99964.28;;;16.11;76.79
64343;BME280;50675;53.530;-6.312;2022-09-09T05:30:35;99967.31;;;16.10;76.86
64343;BME280;50675;53.530;-6.312;2022-09-09T05:33:01;99962.63;;;15.97;76.94
64343;BME280;50675;53.530;-6.312;2022-09-09T05:35:27;99964.97;;;16.03;77.11
64343;BME280;50675;53.530;-6.312;2022-09-09T05:37:52;99970.84;;;16.10;77.08
64343;BME280;50675;53.530;-6.312;2022-09-09T05:40:18;99965.97;;;16.07;77.02
64343;BME280;50675;53.530;-6.312;2022-09-09T05:42:44;99975.16;;;16.11;77.02
64343;BME280;50675;53.530;-6.312;2022-09-09T05:45:10;99972.75;;;16.10;76.83
64343;BME280;50675;53.530;-6.312;2022-09-09T05:47:36;99974.88;;;16.13;76.92
64343;BME280;50675;53.530;-6.312;2022-09-09T05:50:03;99984.47;;;16.10;76.87
64343;BME280;50675;53.530;-6.312;2022-09-09T05:52:29;99986.38;;;16.10;76.97
64343;BME280;50675;53.530;-6.312;2022-09-09T05:54:55;99997.09;;;16.20;76.79
64343;BME280;50675;53.530;-6.312;2022-09-09T05:57:22;99987.88;;;16.16;76.97
64343;BME280;50675;53.530;-6.312;2022-09-09T05:59:48;100000.84;;;16.24;76.86
64343;BME280;50675;53.530;-6.312;2022-09-09T06:02:14;99999.00;;;16.19;77.10
64343;BME280;50675;53.530;-6.312;2022-09-09T06:04:40;100007.09;;;16.25;76.98
64343;BME280;50675;53.530;-6.312;2022-09-09T06:07:06;100005.06;;;16.30;76.96
64343;BME280;50675;53.530;-6.312;2022-09-09T06:09:32;99999.03;;;16.33;76.93
64343;BME280;50675;53.530;-6.312;2022-09-09T06:11:57;100009.41;;;16.31;76.94
64343;BME280;50675;53.530;-6.312;2022-09-09T06:14:24;100008.31;;;16.32;77.04
64343;BME280;50675;53.530;-6.312;2022-09-09T06:16:51;100019.09;;;16.37;76.98
64343;BME280;50675;53.530;-6.312;2022-09-09T06:19:17;100010.94;;;16.37;76.95
64343;BME280;50675;53.530;-6.312;2022-09-09T06:24:20;100013.22;;;16.30;77.02
64343;BME280;50675;53.530;-6.312;2022-09-09T06:26:51;100026.38;;;16.42;77.05
64343;BME280;50675;53.530;-6.312;2022-09-09T06:29:16;100024.75;;;16.41;77.00
64343;BME280;50675;53.530;-6.312;2022-09-09T06:31:42;100027.09;;;16.47;76.84
64343;BME280;50675;53.530;-6.312;2022-09-09T06:34:08;100034.16;;;16.48;76.84
64343;BME280;50675;53.530;-6.312;2022-09-09T06:36:52;100036.56;;;16.50;76.91
64343;BME280;50675;53.530;-6.312;2022-09-09T06:39:18;100046.19;;;16.47;76.84
64343;BME280;50675;53.530;-6.312;2022-09-09T06:42:02;100053.16;;;16.53;76.89
64343;BME280;50675;53.530;-6.312;2022-09-09T06:44:27;100061.34;;;16.53;76.62
64343;BME280;50675;53.530;-6.312;2022-09-09T06:46:53;100065.66;;;16.54;76.78
64343;BME280;50675;53.530;-6.312;2022-09-09T06:49:19;100072.16;;;16.58;76.88
64343;BME280;50675;53.530;-6.312;2022-09-09T06:51:44;100061.53;;;16.57;76.72
64343;BME280;50675;53.530;-6.312;2022-09-09T06:54:11;100066.41;;;16.60;76.83
64343;BME280;50675;53.530;-6.312;2022-09-09T06:56:41;100073.78;;;16.59;76.70
64343;BME280;50675;53.530;-6.312;2022-09-09T06:59:09;100083.63;;;16.55;76.84
64343;BME280;50675;53.530;-6.312;2022-09-09T07:01:39;100082.53;;;16.56;76.68
64343;BME280;50675;53.530;-6.312;2022-09-09T07:06:42;100072.63;;;16.47;76.84
64343;BME280;50675;53.530;-6.312;2022-09-09T07:09:11;100082.63;;;16.51;76.80
64343;BME280;50675;53.530;-6.312;2022-09-09T07:11:48;100088.75;;;16.62;76.68
64343;BME280;50675;53.530;-6.312;2022-09-09T07:14:14;100096.81;;;16.67;76.50
64343;BME280;50675;53.530;-6.312;2022-09-09T07:16:41;100091.66;;;16.66;76.67
64343;BME280;50675;53.530;-6.312;2022-09-09T07:19:11;100089.94;;;16.70;76.87
64343;BME280;50675;53.530;-6.312;2022-09-09T07:21:40;100090.56;;;16.80;76.82
64343;BME280;50675;53.530;-6.312;2022-09-09T07:24:08;100094.69;;;16.78;76.81
64343;BME280;50675;53.530;-6.312;2022-09-09T07:26:37;100093.38;;;16.89;77.07
64343;BME280;50675;53.530;-6.312;2022-09-09T07:29:03;100108.66;;;16.90;76.69
64343;BME280;50675;53.530;-6.312;2022-09-09T07:31:32;100104.28;;;16.89;76.79
64343;BME280;50675;53.530;-6.312;2022-09-09T07:34:01;100105.31;;;16.93;77.00
64343;BME280;50675;53.530;-6.312;2022-09-09T07:36:38;100101.28;;;16.90;76.88
64343;BME280;50675;53.530;-6.312;2022-09-09T07:39:08;100110.84;;;16.88;76.99
64343;BME280;50675;53.530;-6.312;2022-09-09T07:41:45;100111.28;;;16.81;76.91
64343;BME280;50675;53.530;-6.312;2022-09-09T07:44:16;100115.50;;;16.87;76.70
64343;BME280;50675;53.530;-6.312;2022-09-09T07:46:43;100123.69;;;16.87;76.80
64343;BME280;50675;53.530;-6.312;2022-09-09T07:49:15;100128.75;;;16.94;76.89
64343;BME280;50675;53.530;-6.312;2022-09-09T07:51:44;100133.19;;;17.03;76.94
64343;BME280;50675;53.530;-6.312;2022-09-09T07:54:13;100109.47;;;16.90;76.97
64343;BME280;50675;53.530;-6.312;2022-09-09T07:56:43;100133.19;;;17.03;77.04
64343;BME280;50675;53.530;-6.312;2022-09-09T07:59:09;100139.84;;;17.11;76.68
64343;BME280;50675;53.530;-6.312;2022-09-09T08:01:40;100148.66;;;17.22;77.05
64343;BME280;50675;53.530;-6.312;2022-09-09T08:04:12;100138.25;;;17.10;76.92
64343;BME280;50675;53.530;-6.312;2022-09-09T08:06:44;100140.28;;;17.18;76.96
64343;BME280;50675;53.530;-6.312;2022-09-09T08:09:12;100138.16;;;17.15;76.85
64343;BME280;50675;53.530;-6.312;2022-09-09T08:11:39;100148.34;;;17.23;76.79
64343;BME280;50675;53.530;-6.312;2022-09-09T08:14:07;100155.03;;;17.17;77.10
64343;BME280;50675;53.530;-6.312;2022-09-09T10:39:54;100351.19;;;19.27;73.77
64343;BME280;50675;53.530;-6.312;2022-09-09T10:42:28;100344.78;;;19.32;73.94
64343;BME280;50675;53.530;-6.312;2022-09-09T10:45:43;100352.63;;;19.47;73.47
64343;BME280;50675;53.530;-6.312;2022-09-09T10:54:11;100364.56;;;19.51;73.39
64343;BME280;50675;53.530;-6.312;2022-09-09T10:56:43;100357.50;;;19.58;73.02
64343;BME280;50675;53.530;-6.312;2022-09-09T10:59:20;100348.19;;;19.68;72.77
64343;BME280;50675;53.530;-6.312;2022-09-09T11:02:07;100363.09;;;19.76;73.14
64343;BME280;50675;53.530;-6.312;2022-09-09T11:04:55;100371.19;;;19.89;72.85
64343;BME280;50675;53.530;-6.312;2022-09-09T11:07:29;100367.00;;;19.92;72.48
64343;BME280;50675;53.530;-6.312;2022-09-09T11:10:03;100379.81;;;20.05;72.76
64343;BME280;50675;53.530;-6.312;2022-09-09T11:12:35;100376.72;;;20.06;72.34
64343;BME280;50675;53.530;-6.312;2022-09-09T11:15:22;100382.88;;;20.12;72.49
64343;BME280;50675;53.530;-6.312;2022-09-09T11:17:52;100383.25;;;20.19;72.08
64343;BME280;50675;53.530;-6.312;2022-09-09T11:20:20;100376.44;;;20.17;72.04
64343;BME280;50675;53.530;-6.312;2022-09-09T11:22:58;100382.28;;;20.24;72.03
64343;BME280;50675;53.530;-6.312;2022-09-09T11:25:33;100391.63;;;20.14;72.21
64343;BME280;50675;53.530;-6.312;2022-09-09T11:40:04;100398.50;;;20.03;71.67
64343;BME280;50675;53.530;-6.312;2022-09-09T11:43:11;100406.31;;;19.87;71.14
64343;BME280;50675;53.530;-6.312;2022-09-09T11:45:40;100397.81;;;19.89;71.31
64343;BME280;50675;53.530;-6.312;2022-09-09T11:48:43;100403.41;;;19.84;70.97
64343;BME280;50675;53.530;-6.312;2022-09-09T11:53:54;100409.84;;;19.79;70.67
64343;BME280;50675;53.530;-6.312;2022-09-09T11:56:31;100419.00;;;19.75;70.82
64343;BME280;50675;53.530;-6.312;2022-09-09T11:59:05;100407.66;;;19.90;70.92
64343;BME280;50675;53.530;-6.312;2022-09-09T12:01:43;100420.22;;;19.91;70.70
64343;BME280;50675;53.530;-6.312;2022-09-09T12:09:22;100418.28;;;19.91;70.56
64343;BME280;50675;53.530;-6.312;2022-09-09T12:11:50;100422.50;;;19.97;70.80
64343;BME280;50675;53.530;-6.312;2022-09-09T12:14:35;100424.63;;;20.00;70.25
64343;BME280;50675;53.530;-6.312;2022-09-09T12:17:22;100422.50;;;19.97;70.53
64343;BME280;50675;53.530;-6.312;2022-09-09T12:31:04;100424.03;;;20.21;70.58
64343;BME280;50675;53.530;-6.312;2022-09-09T12:33:36;100424.22;;;20.24;70.62
64343;BME280;50675;53.530;-6.312;2022-09-09T12:36:03;100422.28;;;20.25;70.59
64343;BME280;50675;53.530;-6.312;2022-09-09T12:38:39;100426.78;;;20.21;70.26
64343;BME280;50675;53.530;-6.312;2022-09-09T12:41:05;100436.00;;;20.25;70.28
64343;BME280;50675;53.530;-6.312;2022-09-09T12:43:32;100437.63;;;20.26;70.50
64343;BME280;50675;53.530;-6.312;2022-09-09T12:46:06;100437.31;;;20.27;70.39
64343;BME280;50675;53.530;-6.312;2022-09-09T12:48:37;100445.84;;;20.26;70.39
64343;BME280;50675;53.530;-6.312;2022-09-09T12:51:15;100440.84;;;20.19;70.36
64343;BME280;50675;53.530;-6.312;2022-09-09T12:53:44;100443.72;;;20.14;70.62
64343;BME280;50675;53.530;-6.312;2022-09-09T12:56:19;100450.72;;;19.98;70.19
64343;BME280;50675;53.530;-6.312;2022-09-09T12:58:49;100459.09;;;19.93;70.39
64343;BME280;50675;53.530;-6.312;2022-09-09T13:01:26;100458.69;;;19.77;70.23
64343;BME280;50675;53.530;-6.312;2022-09-09T13:03:53;100457.00;;;19.67;70.50
64343;BME280;50675;53.530;-6.312;2022-09-09T13:06:39;100467.63;;;19.60;70.24
64343;BME280;50675;53.530;-6.312;2022-09-09T13:09:05;100463.25;;;19.59;70.93
64343;BME280;50675;53.530;-6.312;2022-09-09T13:11:40;100467.75;;;19.55;70.80
64343;BME280;50675;53.530;-6.312;2022-09-09T13:14:16;100475.66;;;19.57;70.48
64343;BME280;50675;53.530;-6.312;2022-09-09T13:16:55;100473.53;;;19.54;70.81
64343;BME280;50675;53.530;-6.312;2022-09-09T13:19:22;100464.38;;;19.58;70.75
64343;BME280;50675;53.530;-6.312;2022-09-09T13:21:51;100478.88;;;19.59;70.86
64343;BME280;50675;53.530;-6.312;2022-09-09T13:26:59;100494.16;;;19.51;70.67
64343;BME280;50675;53.530;-6.312;2022-09-09T14:13:09;100505.09;;;18.66;71.81
64343;BME280;50675;53.530;-6.312;2022-09-09T14:15:36;100522.69;;;18.87;72.22
64343;BME280;50675;53.530;-6.312;2022-09-09T14:18:02;100512.25;;;18.89;72.19
64343;BME280;50675;53.530;-6.312;2022-09-09T14:20:27;100513.06;;;18.90;72.16
64343;BME280;50675;53.530;-6.312;2022-09-09T14:22:53;100522.00;;;18.95;72.18
64343;BME280;50675;53.530;-6.312;2022-09-09T14:25:19;100523.38;;;19.06;72.01
64343;BME280;50675;53.530;-6.312;2022-09-09T14:27:44;100528.66;;;19.03;72.24
64343;BME280;50675;53.530;-6.312;2022-09-09T14:30:11;100525.81;;;19.08;72.36
64343;BME280;50675;53.530;-6.312;2022-09-09T14:32:37;100541.50;;;19.16;72.56
64343;BME280;50675;53.530;-6.312;2022-09-09T14:35:03;100537.66;;;19.17;72.69
64343;BME280;50675;53.530;-6.312;2022-09-09T14:37:29;100526.88;;;19.20;72.24
64343;BME280;50675;53.530;-6.312;2022-09-09T14:39:57;100526.47;;;19.27;72.54
64343;BME280;50675;53.530;-6.312;2022-09-09T14:42:22;100530.03;;;19.28;72.14
64343;BME280;50675;53.530;-6.312;2022-09-09T14:44:48;100525.94;;;19.25;72.34
64343;BME280;50675;53.530;-6.312;2022-09-09T14:47:14;100527.16;;;19.33;72.55
64343;BME280;50675;53.530;-6.312;2022-09-09T14:49:40;100527.34;;;19.36;72.31
64343;BME280;50675;53.530;-6.312;2022-09-09T14:52:05;100530.47;;;19.43;72.77
64343;BME280;50675;53.530;-6.312;2022-09-09T14:54:31;100527.53;;;19.40;72.48
64343;BME280;50675;53.530;-6.312;2022-09-09T14:56:58;100524.09;;;19.48;72.80
64343;BME280;50675;53.530;-6.312;2022-09-09T14:59:24;100537.69;;;19.53;72.34
64343;BME280;50675;53.530;-6.312;2022-09-09T15:01:50;100530.13;;;19.58;72.38
64343;BME280;50675;53.530;-6.312;2022-09-09T15:04:16;100526.34;;;19.46;72.40
64343;BME280;50675;53.530;-6.312;2022-09-09T15:06:42;100543.16;;;19.53;72.38
64343;BME280;50675;53.530;-6.312;2022-09-09T15:09:12;100545.38;;;19.51;72.39
64343;BME280;50675;53.530;-6.312;2022-09-09T15:11:38;100551.28;;;19.44;72.57
64343;BME280;50675;53.530;-6.312;2022-09-09T15:14:05;100547.44;;;19.45;72.51
64343;BME280;50675;53.530;-6.312;2022-09-09T15:16:31;100545.50;;;19.46;72.51
64343;BME280;50675;53.530;-6.312;2022-09-09T15:18:58;100545.28;;;19.42;72.37
64343;BME280;50675;53.530;-6.312;2022-09-09T15:21:27;100553.91;;;19.49;72.14
64343;BME280;50675;53.530;-6.312;2022-09-09T15:23:54;100543.16;;;19.53;72.61
64343;BME280;50675;53.530;-6.312;2022-09-09T15:26:20;100549.63;;;19.57;72.61
64343;BME280;50675;53.530;-6.312;2022-09-09T15:28:47;100553.97;;;19.58;72.24
64343;BME280;50675;53.530;-6.312;2022-09-09T15:31:24;100561.19;;;19.54;72.31
64343;BME280;50675;53.530;-6.312;2022-09-09T15:33:52;100563.00;;;19.58;72.26
64343;BME280;50675;53.530;-6.312;2022-09-09T15:36:25;100571.56;;;19.57;72.48
64343;BME280;50675;53.530;-6.312;2022-09-09T15:38:52;100562.41;;;19.61;72.22
64343;BME280;50675;53.530;-6.312;2022-09-09T15:41:20;100572.84;;;19.59;72.43
64343;BME280;50675;53.530;-6.312;2022-09-09T15:43:48;100570.22;;;19.54;72.27
64343;BME280;50675;53.530;-6.312;2022-09-09T15:46:24;100576.03;;;19.53;71.92
64343;BME280;50675;53.530;-6.312;2022-09-09T15:49:04;100582.63;;;19.52;72.23
64343;BME280;50675;53.530;-6.312;2022-09-09T15:51:30;100587.41;;;19.46;72.16
64343;BME280;50675;53.530;-6.312;2022-09-09T15:53:57;100579.78;;;19.43;72.26
64343;BME280;50675;53.530;-6.312;2022-09-09T15:56:25;100584.16;;;19.44;72.13
64343;BME280;50675;53.530;-6.312;2022-09-09T15:58:51;100584.47;;;19.43;72.06
64343;BME280;50675;53.530;-6.312;2022-09-09T16:01:17;100585.56;;;19.42;71.94
64343;BME280;50675;53.530;-6.312;2022-09-09T16:03:45;100588.81;;;19.44;72.10
64343;BME280;50675;53.530;-6.312;2022-09-09T16:06:18;100588.53;;;19.45;71.63
64343;BME280;50675;53.530;-6.312;2022-09-09T16:08:45;100592.91;;;19.46;71.77
64343;BME280;50675;53.530;-6.312;2022-09-09T16:11:17;100589.84;;;19.48;71.84
64343;BME280;50675;53.530;-6.312;2022-09-09T16:13:46;100597.44;;;19.51;71.70
64343;BME280;50675;53.530;-6.312;2022-09-09T16:16:14;100599.38;;;19.50;71.91
64343;BME280;50675;53.530;-6.312;2022-09-09T16:18:43;100608.41;;;19.51;71.66
64343;BME280;50675;53.530;-6.312;2022-09-09T16:21:17;100603.56;;;19.48;71.68
64343;BME280;50675;53.530;-6.312;2022-09-09T16:23:43;100605.97;;;19.49;71.46
64343;BME280;50675;53.530;-6.312;2022-09-09T16:26:11;100611.78;;;19.48;71.71
64343;BME280;50675;53.530;-6.312;2022-09-09T16:28:38;100610.75;;;19.44;71.77
64343;BME280;50675;53.530;-6.312;2022-09-09T16:31:09;100606.97;;;19.40;71.33
64343;BME280;50675;53.530;-6.312;2022-09-09T16:33:36;100611.97;;;19.38;71.23
64343;BME280;50675;53.530;-6.312;2022-09-09T16:36:11;100624.13;;;19.32;71.62
64343;BME280;50675;53.530;-6.312;2022-09-09T16:38:38;100622.84;;;19.29;71.46
64343;BME280;50675;53.530;-6.312;2022-09-09T16:41:05;100630.03;;;19.25;71.70
64343;BME280;50675;53.530;-6.312;2022-09-09T16:43:32;100627.59;;;19.23;71.29
64343;BME280;50675;53.530;-6.312;2022-09-09T16:45:58;100631.25;;;19.19;71.07
64343;BME280;50675;53.530;-6.312;2022-09-09T16:48:31;100632.09;;;19.19;71.02
64343;BME280;50675;53.530;-6.312;2022-09-09T16:51:05;100639.56;;;19.28;71.08
64343;BME280;50675;53.530;-6.312;2022-09-09T16:53:32;100644.13;;;19.32;71.48
64343;BME280;50675;53.530;-6.312;2022-09-09T16:56:05;100642.69;;;19.35;71.36
64343;BME280;50675;53.530;-6.312;2022-09-09T16:58:31;100641.47;;;19.41;71.19
64343;BME280;50675;53.530;-6.312;2022-09-09T17:00:58;100659.47;;;19.47;71.04
64343;BME280;50675;53.530;-6.312;2022-09-09T17:03:24;100664.81;;;19.38;71.00
64343;BME280;50675;53.530;-6.312;2022-09-09T17:05:50;100659.25;;;19.43;71.13
64343;BME280;50675;53.530;-6.312;2022-09-09T17:08:16;100666.03;;;19.46;70.89
64343;BME280;50675;53.530;-6.312;2022-09-09T17:10:42;100677.81;;;19.46;70.76
64343;BME280;50675;53.530;-6.312;2022-09-09T17:13:08;100678.00;;;19.50;70.65
64343;BME280;50675;53.530;-6.312;2022-09-09T17:15:39;100680.53;;;19.33;70.68
64343;BME280;50675;53.530;-6.312;2022-09-09T17:18:05;100684.78;;;19.25;70.55
64343;BME280;50675;53.530;-6.312;2022-09-09T17:20:34;100697.38;;;19.26;70.88
64343;BME280;50675;53.530;-6.312;2022-09-09T17:23:00;100697.19;;;19.09;70.46
64343;BME280;50675;53.530;-6.312;2022-09-09T17:25:25;100693.72;;;19.03;70.60
64343;BME280;50675;53.530;-6.312;2022-09-09T17:27:51;100698.00;;;18.96;70.71
64343;BME280;50675;53.530;-6.312;2022-09-09T17:30:18;100701.63;;;18.91;70.74